createdAt,value
2022-12-21T00:00:23.319Z,101111.96
2022-12-21T00:02:53.248Z,101123.29
2022-12-21T00:05:23.309Z,101124.13
2022-12-21T00:07:53.066Z,101123.44
2022-12-21T00:10:22.789Z,101114.11
2022-12-21T00:12:52.837Z,101114.11
2022-12-21T00:15:22.520Z,101115.98
2022-12-21T00:17:52.585Z,101107.89
2022-12-21T00:20:22.090Z,101107.22
2022-12-21T00:22:51.837Z,101121.56
2022-12-21T00:25:21.742Z,101114.43
2022-12-21T00:27:51.507Z,101115.64
2022-12-21T00:30:21.101Z,101112.48
2022-12-21T00:32:51.007Z,101114.86
2022-12-21T00:35:20.797Z,101112.72
2022-12-21T00:37:52.310Z,101122.63
2022-12-21T00:40:21.775Z,101112.02
2022-12-21T00:42:51.260Z,101119.27
2022-12-21T00:45:20.865Z,101115.21
2022-12-21T00:47:50.624Z,101120.31
2022-12-21T00:50:20.673Z,101122.08
2022-12-21T00:52:50.447Z,101116.62
2022-12-21T00:55:19.924Z,101118.98
2022-12-21T00:57:49.685Z,101122.96
2022-12-21T01:00:20.162Z,101128.03
2022-12-21T01:02:50.077Z,101126.44
2022-12-21T01:05:20.183Z,101127.98
2022-12-21T01:07:50.078Z,101131.78
2022-12-21T01:10:19.808Z,101138.08
2022-12-21T01:12:49.945Z,101141.01
2022-12-21T01:15:19.619Z,101138.80
2022-12-21T01:17:49.643Z,101137.67
2022-12-21T01:20:19.163Z,101143.59
2022-12-21T01:22:48.996Z,101139.38
2022-12-21T01:25:18.811Z,101147.12
2022-12-21T01:27:48.581Z,101147.12
2022-12-21T01:30:18.483Z,101146.40
2022-12-21T01:32:48.518Z,101149.37
2022-12-21T01:35:18.581Z,101149.37
2022-12-21T01:37:48.083Z,101151.66
2022-12-21T01:40:17.983Z,101153.53
2022-12-21T01:42:47.725Z,101154.17
2022-12-21T01:45:25.767Z,101164.04
2022-12-21T01:48:02.894Z,101156.80
2022-12-21T01:50:37.391Z,101154.90
2022-12-21T01:53:12.963Z,101155.75
2022-12-21T01:55:44.186Z,101152.48
2022-12-21T01:58:15.237Z,101151.23
2022-12-21T02:00:45.128Z,101155.17
2022-12-21T02:03:18.049Z,101156.59
2022-12-21T02:05:56.496Z,101161.59
2022-12-21T02:08:26.474Z,101158.27
2022-12-21T02:10:58.926Z,101152.52
2022-12-21T02:13:28.650Z,101157.64
2022-12-21T02:16:08.237Z,101151.80
2022-12-21T02:18:56.023Z,101153.34
2022-12-21T02:21:37.724Z,101159.25
2022-12-21T02:24:18.465Z,101148.75
2022-12-21T02:27:05.845Z,101152.12
2022-12-21T02:29:38.641Z,101144.47
2022-12-21T02:32:21.231Z,101141.47
2022-12-21T02:35:08.952Z,101136.53
2022-12-21T02:37:41.774Z,101138.48
2022-12-21T02:40:38.690Z,101134.08
2022-12-21T02:43:38.348Z,101136.23
2022-12-21T02:46:24.515Z,101133.25
2022-12-21T02:49:06.129Z,101132.78
2022-12-21T02:51:53.446Z,101130.37
2022-12-21T02:54:24.117Z,101128.31
2022-12-21T02:56:54.547Z,101131.66
2022-12-21T02:59:27.805Z,101131.16
2022-12-21T03:02:13.287Z,101131.16
2022-12-21T03:04:46.198Z,101127.89
2022-12-21T03:07:25.172Z,101122.13
2022-12-21T03:10:17.158Z,101124.00
2022-12-21T03:13:07.319Z,101126.80
2022-12-21T03:15:40.123Z,101123.41
2022-12-21T03:18:17.616Z,101128.84
2022-12-21T03:20:50.122Z,101125.44
2022-12-21T03:23:22.914Z,101124.85
2022-12-21T03:26:01.386Z,101123.41
2022-12-21T03:28:33.917Z,101119.62
2022-12-21T03:31:06.844Z,101113.17
2022-12-21T03:33:39.639Z,101112.01
2022-12-21T03:36:20.205Z,101119.31
2022-12-21T03:38:53.020Z,101109.78
2022-12-21T03:41:25.800Z,101106.73
2022-12-21T03:43:58.829Z,101105.47
2022-12-21T03:46:31.661Z,101109.03
2022-12-21T03:49:13.378Z,101114.27
2022-12-21T03:51:54.647Z,101111.67
2022-12-21T03:54:43.960Z,101105.58
2022-12-21T03:57:15.515Z,101113.23
2022-12-21T03:59:48.226Z,101106.47
2022-12-21T04:02:29.796Z,101103.49
2022-12-21T04:05:20.443Z,101098.61
2022-12-21T04:07:52.340Z,101108.62
2022-12-21T04:10:23.806Z,101101.41
2022-12-21T04:12:53.592Z,101097.84
2022-12-21T04:15:26.123Z,101106.98
2022-12-21T04:17:55.854Z,101097.13
2022-12-21T04:20:26.906Z,101093.64
2022-12-21T04:23:14.579Z,101098.44
2022-12-21T04:26:01.829Z,101090.59
2022-12-21T04:28:51.116Z,101092.20
2022-12-21T04:31:05.297Z,101093.16
2022-12-21T04:33:35.070Z,101093.61
2022-12-21T04:36:24.209Z,101100.30
2022-12-21T04:38:53.984Z,101108.82
2022-12-21T04:41:23.696Z,101115.60
2022-12-21T04:43:53.229Z,101108.23
2022-12-21T04:46:23.240Z,101107.75
2022-12-21T04:48:52.968Z,101107.75
2022-12-21T04:51:25.937Z,101111.31
2022-12-21T04:53:55.832Z,101101.27
2022-12-21T04:56:25.593Z,101101.26
2022-12-21T04:58:55.656Z,101110.02
2022-12-21T05:01:25.656Z,101110.02
2022-12-21T05:03:59.244Z,101107.23
2022-12-21T05:06:29.144Z,101093.96
2022-12-21T05:08:59.269Z,101103.34
2022-12-21T05:11:29.016Z,101094.92
2022-12-21T05:14:00.390Z,101094.09
2022-12-21T05:16:30.176Z,101076.50
2022-12-21T05:19:00.235Z,101087.47
2022-12-21T05:21:30.007Z,101095.13
2022-12-21T05:24:00.072Z,101092.72
2022-12-21T05:26:29.841Z,101092.64
2022-12-21T05:28:59.697Z,101098.94
2022-12-21T05:31:29.554Z,101094.97
2022-12-21T05:33:59.647Z,101085.11
2022-12-21T05:36:30.421Z,101085.11
2022-12-21T05:39:00.261Z,101086.88
2022-12-21T05:41:30.227Z,101092.77
2022-12-21T05:44:00.362Z,101089.71
2022-12-21T05:46:30.256Z,101094.43
2022-12-21T05:49:00.104Z,101096.74
2022-12-21T05:51:29.881Z,101085.45
2022-12-21T05:53:59.664Z,101085.42
2022-12-21T05:56:29.387Z,101081.22
2022-12-21T05:59:00.013Z,101070.89
2022-12-21T06:01:30.818Z,101070.89
2022-12-21T06:04:00.853Z,101076.66
2022-12-21T06:06:31.089Z,101067.72
2022-12-21T06:09:00.898Z,101068.23
2022-12-21T06:11:31.326Z,101068.23
2022-12-21T06:14:01.254Z,101062.70
2022-12-21T06:16:31.448Z,101063.36
2022-12-21T06:19:01.623Z,101059.34
2022-12-21T06:21:31.371Z,101066.98
2022-12-21T06:24:01.154Z,101059.23
2022-12-21T06:26:30.896Z,101059.67
2022-12-21T06:29:00.647Z,101070.16
2022-12-21T06:31:30.480Z,101064.27
2022-12-21T06:34:00.253Z,101064.27
2022-12-21T06:36:30.006Z,101064.70
2022-12-21T06:38:59.916Z,101070.63
2022-12-21T06:41:29.800Z,101068.46
2022-12-21T06:43:59.934Z,101077.98
2022-12-21T06:46:29.801Z,101078.94
2022-12-21T06:49:00.423Z,101083.83
2022-12-21T06:51:30.188Z,101077.77
2022-12-21T06:54:00.005Z,101074.36
2022-12-21T06:56:32.247Z,101084.17
2022-12-21T06:59:02.139Z,101085.42
2022-12-21T07:01:35.292Z,101083.56
2022-12-21T07:04:05.386Z,101082.91
2022-12-21T07:06:35.223Z,101087.23
2022-12-21T07:09:05.042Z,101091.88
2022-12-21T07:11:34.795Z,101099.14
2022-12-21T07:14:06.425Z,101092.73
2022-12-21T07:16:36.540Z,101099.13
2022-12-21T07:19:06.445Z,101097.98
2022-12-21T07:21:36.590Z,101096.00
2022-12-21T07:24:08.612Z,101097.66
2022-12-21T07:26:38.431Z,101094.42
2022-12-21T07:29:08.192Z,101088.89
2022-12-21T07:31:38.097Z,101093.48
2022-12-21T07:34:09.948Z,101093.48
2022-12-21T07:36:39.947Z,101102.04
2022-12-21T07:39:09.754Z,101102.66
2022-12-21T07:41:39.779Z,101108.19
2022-12-21T07:44:11.158Z,101108.19
2022-12-21T07:46:54.382Z,101108.00
2022-12-21T07:49:25.956Z,101099.03
2022-12-21T07:51:56.255Z,101103.20
2022-12-21T07:54:25.690Z,101126.81
2022-12-21T07:56:55.478Z,101136.14
2022-12-21T07:59:25.302Z,101140.27
2022-12-21T08:01:56.244Z,101149.81
2022-12-21T08:04:25.870Z,101158.86
2022-12-21T08:06:55.620Z,101154.16
2022-12-21T08:09:25.096Z,101161.47
2022-12-21T08:11:55.179Z,101170.33
2022-12-21T08:14:24.695Z,101166.01
2022-12-21T08:16:55.247Z,101162.46
2022-12-21T08:19:25.051Z,101154.85
2022-12-21T08:21:54.917Z,101158.39
2022-12-21T08:24:24.764Z,101143.23
2022-12-21T08:26:55.387Z,101143.16
2022-12-21T08:29:25.223Z,101145.11
2022-12-21T08:31:55.141Z,101150.20
2022-12-21T08:34:25.405Z,101149.34
2022-12-21T08:36:55.165Z,101155.70
2022-12-21T08:39:24.930Z,101153.59
2022-12-21T08:41:55.142Z,101152.95
2022-12-21T08:44:25.234Z,101155.91
2022-12-21T08:46:54.985Z,101159.48
2022-12-21T08:49:24.801Z,101157.25
2022-12-21T08:51:54.556Z,101149.31
2022-12-21T08:54:25.036Z,101151.47
2022-12-21T08:56:54.901Z,101160.14
2022-12-21T08:59:24.717Z,101146.22
2022-12-21T09:01:54.911Z,101151.30
2022-12-21T09:04:25.134Z,101162.58
2022-12-21T09:06:54.895Z,101154.17
2022-12-21T09:09:24.733Z,101164.12
2022-12-21T09:11:55.497Z,101162.55
2022-12-21T09:14:26.609Z,101173.38
2022-12-21T09:16:56.534Z,101164.16
2022-12-21T09:19:27.055Z,101149.99
2022-12-21T09:21:56.794Z,101155.72
2022-12-21T09:24:26.518Z,101161.39
2022-12-21T09:26:56.531Z,101156.61
2022-12-21T09:29:26.295Z,101156.34
2022-12-21T09:31:56.393Z,101152.54
2022-12-21T09:34:26.484Z,101146.14
2022-12-21T09:37:21.918Z,101145.73
2022-12-21T09:39:28.472Z,101141.34
2022-12-21T09:42:01.264Z,101147.41
2022-12-21T09:44:51.844Z,101145.33
2022-12-21T09:47:33.964Z,101144.26
2022-12-21T09:50:07.888Z,101160.27
2022-12-21T09:52:46.584Z,101158.77
2022-12-21T09:55:29.662Z,101160.97
2022-12-21T09:58:00.905Z,101158.66
2022-12-21T10:00:33.548Z,101154.08
2022-12-21T10:06:06.426Z,101130.84
2022-12-21T10:09:10.878Z,101130.84
2022-12-21T10:11:43.666Z,101144.81
2022-12-21T10:14:51.719Z,101137.49
2022-12-21T10:17:42.898Z,101138.63
2022-12-21T10:20:25.456Z,101144.59
2022-12-21T10:23:27.080Z,101134.08
2022-12-21T10:26:04.899Z,101132.42
2022-12-21T10:28:46.504Z,101137.41
2022-12-21T10:31:19.622Z,101130.58
2022-12-21T10:33:52.692Z,101134.77
2022-12-21T10:36:25.723Z,101129.63
2022-12-21T10:38:58.074Z,101135.27
2022-12-21T10:41:31.039Z,101136.22
2022-12-21T10:44:02.337Z,101143.00
2022-12-21T10:46:38.671Z,101140.30
2022-12-21T10:49:29.422Z,101142.98
2022-12-21T10:51:59.248Z,101141.21
2022-12-21T10:54:30.824Z,101136.33
2022-12-21T10:57:01.553Z,101135.27
2022-12-21T10:59:34.876Z,101125.65
2022-12-21T11:04:45.379Z,101124.97
2022-12-21T11:07:57.534Z,101117.56
2022-12-21T11:12:37.580Z,101111.91
2022-12-21T11:15:41.127Z,101106.14
2022-12-21T11:17:46.733Z,101100.81
2022-12-21T11:20:22.505Z,101114.12
2022-12-21T11:22:59.599Z,101107.09
2022-12-21T11:25:33.464Z,101109.95
2022-12-21T11:28:03.852Z,101107.93
2022-12-21T11:30:36.925Z,101105.14
2022-12-21T11:33:07.825Z,101105.85
2022-12-21T11:35:37.836Z,101105.30
2022-12-21T11:38:16.984Z,101108.25
2022-12-21T11:40:57.738Z,101105.42
2022-12-21T11:43:27.848Z,101116.00
2022-12-21T11:46:47.945Z,101117.04
2022-12-21T11:49:10.886Z,101116.76
2022-12-21T11:51:58.299Z,101125.14
2022-12-21T11:54:50.755Z,101118.61
2022-12-21T11:57:26.501Z,101115.36
2022-12-21T12:00:29.026Z,101109.58
2022-12-21T12:03:07.127Z,101109.94
2022-12-21T12:05:54.759Z,101106.70
2022-12-21T12:08:38.829Z,101090.23
2022-12-21T12:11:20.091Z,101086.45
2022-12-21T12:14:01.829Z,101082.70
2022-12-21T12:16:37.441Z,101070.41
2022-12-21T12:19:30.882Z,101074.09
2022-12-21T12:22:15.279Z,101072.77
2022-12-21T12:25:03.264Z,101069.16
2022-12-21T12:27:42.273Z,101058.78
2022-12-21T12:30:23.141Z,101055.91
2022-12-21T12:33:12.137Z,101061.95
2022-12-21T12:35:59.536Z,101064.69
2022-12-21T12:38:51.687Z,101058.84
2022-12-21T12:41:42.079Z,101063.40
2022-12-21T12:44:23.670Z,101062.20
2022-12-21T12:46:56.567Z,101062.83
2022-12-21T12:50:08.521Z,101061.46
2022-12-21T12:52:48.612Z,101066.12
2022-12-21T12:55:40.829Z,101058.91
2022-12-21T12:58:36.985Z,101051.47
2022-12-21T13:01:22.264Z,101047.69
2022-12-21T13:04:11.378Z,101046.72
2022-12-21T13:06:55.716Z,101049.33
2022-12-21T13:09:49.165Z,101043.66
2022-12-21T13:12:41.058Z,101044.97
2022-12-21T13:15:41.291Z,101040.69
2022-12-21T13:18:15.253Z,101042.81
2022-12-21T13:20:48.091Z,101040.29
2022-12-21T13:23:35.625Z,101042.71
2022-12-21T13:29:23.573Z,101027.05
2022-12-21T13:32:02.291Z,101026.13
2022-12-21T13:34:37.928Z,101023.59
2022-12-21T13:37:17.305Z,101016.20
2022-12-21T13:40:02.289Z,101018.95
2022-12-21T13:42:40.886Z,101016.08
2022-12-21T13:45:25.578Z,101019.55
2022-12-21T13:47:56.252Z,101029.87
2022-12-21T13:50:31.496Z,101022.83
2022-12-21T13:53:04.267Z,101019.50
2022-12-21T13:58:35.721Z,101020.05
2022-12-21T14:01:24.851Z,101017.55
2022-12-21T14:04:00.713Z,101009.67
2022-12-21T14:06:39.173Z,101020.44
2022-12-21T14:09:45.540Z,101019.70
2022-12-21T14:12:28.777Z,101017.33
2022-12-21T14:14:59.624Z,101024.09
2022-12-21T14:17:35.462Z,101017.16
2022-12-21T14:20:32.539Z,101018.51
2022-12-21T14:23:05.377Z,101011.05
2022-12-21T14:25:41.386Z,101010.66
2022-12-21T14:28:32.752Z,101012.94
2022-12-21T14:31:08.307Z,101011.45
2022-12-21T14:36:24.212Z,101005.94
2022-12-21T14:39:08.633Z,101011.45
2022-12-21T14:42:08.227Z,101020.27
2022-12-21T14:44:24.645Z,101001.05
2022-12-21T14:47:09.548Z,101002.84
2022-12-21T14:49:41.873Z,101018.16
2022-12-21T14:52:23.701Z,101020.59
2022-12-21T14:55:05.301Z,101027.81
2022-12-21T14:57:43.768Z,101027.62
2022-12-21T15:00:16.337Z,101018.08
2022-12-21T15:03:02.159Z,101003.04
2022-12-21T15:05:41.089Z,100998.92
2022-12-21T15:08:17.045Z,100999.05
2022-12-21T15:10:49.992Z,100999.53
2022-12-21T15:13:35.247Z,100988.03
2022-12-21T15:16:19.139Z,100981.15
2022-12-21T15:18:58.500Z,100972.87
2022-12-21T15:21:47.034Z,100977.91
2022-12-21T15:24:22.905Z,100975.71
2022-12-21T15:27:21.846Z,100971.51
2022-12-21T15:29:54.679Z,100971.83
2022-12-21T15:32:44.762Z,100973.27
2022-12-21T15:35:17.238Z,100968.27
2022-12-21T15:37:48.415Z,100962.17
2022-12-21T15:40:23.631Z,100947.66
2022-12-21T15:42:56.188Z,100944.48
2022-12-21T15:45:37.448Z,100952.66
2022-12-21T15:48:18.174Z,100934.80
2022-12-21T15:50:48.226Z,100934.80
2022-12-21T15:53:26.001Z,100940.32
2022-12-21T15:56:02.237Z,100933.00
2022-12-21T15:58:35.973Z,100937.92
2022-12-21T16:01:21.154Z,100936.17
2022-12-21T16:03:49.352Z,100938.33
2022-12-21T16:06:27.025Z,100939.05
2022-12-21T16:08:58.408Z,100931.00
2022-12-21T16:14:15.344Z,100923.88
2022-12-21T16:16:50.524Z,100929.39
2022-12-21T16:19:31.376Z,100926.08
2022-12-21T16:22:04.771Z,100924.75
2022-12-21T16:24:35.922Z,100923.08
2022-12-21T16:27:11.157Z,100917.39
2022-12-21T16:29:48.178Z,100916.72
2022-12-21T16:32:18.657Z,100904.43
2022-12-21T16:34:57.096Z,100902.88
2022-12-21T16:37:31.310Z,100908.39
2022-12-21T16:40:06.768Z,100909.80
2022-12-21T16:42:41.067Z,100897.95
2022-12-21T16:45:30.245Z,100897.83
2022-12-21T16:48:23.791Z,100894.31
2022-12-21T16:50:59.433Z,100893.02
2022-12-21T16:53:42.967Z,100896.91
2022-12-21T16:56:23.218Z,100894.31
2022-12-21T16:59:04.554Z,100889.31
2022-12-21T17:01:55.257Z,100870.98
2022-12-21T17:04:33.737Z,100870.62
2022-12-21T17:07:07.118Z,100870.62
2022-12-21T17:09:54.670Z,100874.66
2022-12-21T17:12:43.878Z,100873.63
2022-12-21T17:15:22.820Z,100870.19
2022-12-21T17:17:53.535Z,100859.11
2022-12-21T17:20:35.094Z,100863.74
2022-12-21T17:23:13.675Z,100859.82
2022-12-21T17:25:51.927Z,100852.51
2022-12-21T17:28:37.447Z,100856.34
2022-12-21T17:31:21.174Z,100860.83
2022-12-21T17:33:51.045Z,100852.98
2022-12-21T17:36:21.279Z,100843.59
2022-12-21T17:38:51.020Z,100850.78
2022-12-21T17:41:24.157Z,100850.78
2022-12-21T17:43:56.247Z,100840.87
2022-12-21T17:46:27.162Z,100840.87
2022-12-21T17:48:56.925Z,100838.02
2022-12-21T17:51:27.047Z,100844.38
2022-12-21T17:53:59.270Z,100833.47
2022-12-21T17:56:28.303Z,100826.81
2022-12-21T17:58:58.120Z,100832.83
2022-12-21T18:01:28.057Z,100843.46
2022-12-21T18:03:59.605Z,100847.69
2022-12-21T18:06:31.478Z,100838.41
2022-12-21T18:09:01.204Z,100841.97
2022-12-21T18:11:30.931Z,100842.60
2022-12-21T18:14:00.461Z,100847.00
2022-12-21T18:16:36.837Z,100836.99
2022-12-21T18:19:08.660Z,100827.56
2022-12-21T18:21:38.647Z,100832.52
2022-12-21T18:24:12.729Z,100833.84
2022-12-21T18:26:42.836Z,100832.60
2022-12-21T18:29:18.079Z,100825.56
2022-12-21T18:31:48.851Z,100820.20
2022-12-21T18:34:20.842Z,100820.20
2022-12-21T18:36:50.706Z,100822.03
2022-12-21T18:39:20.769Z,100816.81
2022-12-21T18:41:50.496Z,100812.84
2022-12-21T18:44:20.061Z,100812.41
2022-12-21T18:46:51.504Z,100813.57
2022-12-21T18:49:21.408Z,100803.41
2022-12-21T18:51:51.229Z,100803.41
2022-12-21T18:54:23.360Z,100808.77
2022-12-21T18:56:53.912Z,100797.27
2022-12-21T18:59:23.917Z,100799.70
2022-12-21T19:01:55.380Z,100790.03
2022-12-21T19:04:28.225Z,100790.03
2022-12-21T19:06:59.756Z,100788.58
2022-12-21T19:09:29.786Z,100792.41
2022-12-21T19:11:59.671Z,100784.66
2022-12-21T19:14:29.178Z,100783.23
2022-12-21T19:16:58.833Z,100773.30
2022-12-21T19:19:31.685Z,100773.57
2022-12-21T19:22:01.676Z,100764.64
2022-12-21T19:24:35.677Z,100762.66
2022-12-21T19:27:05.542Z,100761.66
2022-12-21T19:29:35.329Z,100758.39
2022-12-21T19:32:05.284Z,100760.52
2022-12-21T19:34:35.087Z,100766.80
2022-12-21T19:37:06.571Z,100755.97
2022-12-21T19:39:44.812Z,100755.97
2022-12-21T19:42:17.980Z,100755.66
2022-12-21T19:44:48.056Z,100753.19
2022-12-21T19:47:22.505Z,100747.17
2022-12-21T19:49:52.631Z,100752.00
2022-12-21T19:52:22.351Z,100749.54
2022-12-21T19:54:52.052Z,100741.89
2022-12-21T19:57:27.756Z,100737.74
2022-12-21T19:59:57.967Z,100736.45
2022-12-21T20:02:32.083Z,100734.23
2022-12-21T20:05:01.934Z,100724.48
2022-12-21T20:07:31.694Z,100720.61
2022-12-21T20:10:01.558Z,100718.52
2022-12-21T20:12:31.299Z,100712.22
2022-12-21T20:15:01.150Z,100719.41
2022-12-21T20:17:30.941Z,100710.05
2022-12-21T20:20:00.749Z,100714.55
2022-12-21T20:22:30.500Z,100715.55
2022-12-21T20:25:00.286Z,100703.53
2022-12-21T20:27:33.202Z,100701.13
2022-12-21T20:30:05.273Z,100703.53
2022-12-21T20:32:36.685Z,100707.78
2022-12-21T20:35:36.925Z,100706.23
2022-12-21T20:37:38.781Z,100700.45
2022-12-21T20:40:13.065Z,100701.86
2022-12-21T20:43:00.924Z,100705.63
2022-12-21T20:45:33.988Z,100687.40
2022-12-21T20:48:04.875Z,100682.15
2022-12-21T20:50:36.745Z,100682.15
2022-12-21T20:53:09.600Z,100681.28
2022-12-21T20:55:58.803Z,100687.56
2022-12-21T20:58:28.259Z,100692.34
2022-12-21T21:00:59.744Z,100689.58
2022-12-21T21:03:31.963Z,100686.91
2022-12-21T21:06:01.812Z,100681.70
2022-12-21T21:08:32.993Z,100681.88
2022-12-21T21:11:20.248Z,100685.20
2022-12-21T21:13:50.083Z,100680.38
2022-12-21T21:16:22.683Z,100681.22
2022-12-21T21:19:16.187Z,100675.31
2022-12-21T21:21:45.636Z,100675.28
2022-12-21T21:24:15.247Z,100683.52
2022-12-21T21:26:46.492Z,100676.25
2022-12-21T21:29:18.584Z,100675.25
2022-12-21T21:31:49.017Z,100670.20
2022-12-21T21:34:19.203Z,100671.72
2022-12-21T21:36:50.885Z,100672.27
2022-12-21T21:39:50.131Z,100674.30
2022-12-21T21:42:20.365Z,100663.68
2022-12-21T21:44:52.139Z,100654.84
2022-12-21T21:47:35.700Z,100654.37
2022-12-21T21:50:23.712Z,100649.69
2022-12-21T21:52:54.119Z,100646.41
2022-12-21T21:55:25.513Z,100644.92
2022-12-21T21:57:55.581Z,100635.08
2022-12-21T22:00:26.897Z,100628.86
2022-12-21T22:03:01.848Z,100630.06
2022-12-21T22:05:34.093Z,100627.92
2022-12-21T22:08:05.003Z,100626.87
2022-12-21T22:10:35.127Z,100628.00
2022-12-21T22:13:16.372Z,100619.34
2022-12-21T22:15:53.902Z,100608.38
2022-12-21T22:18:26.803Z,100608.28
2022-12-21T22:21:16.643Z,100607.23
2022-12-21T22:24:05.105Z,100600.42
2022-12-21T22:27:00.878Z,100600.45
2022-12-21T22:29:51.853Z,100599.80
2022-12-21T22:32:30.349Z,100603.51
2022-12-21T22:35:23.493Z,100599.31
2022-12-21T22:38:11.171Z,100594.95
2022-12-21T22:41:01.750Z,100600.93
2022-12-21T22:43:31.604Z,100599.13
2022-12-21T22:46:01.400Z,100588.14
2022-12-21T22:48:31.353Z,100591.27
2022-12-21T22:51:04.265Z,100582.70
2022-12-21T22:53:46.089Z,100586.98
2022-12-21T22:56:18.209Z,100591.61
2022-12-21T22:58:54.176Z,100585.27
2022-12-21T23:01:24.970Z,100578.06
2022-12-21T23:03:55.064Z,100579.33
2022-12-21T23:06:24.814Z,100577.84
2022-12-21T23:08:55.048Z,100586.23
2022-12-21T23:11:41.597Z,100582.23
2022-12-21T23:14:37.019Z,100578.70
2022-12-21T23:17:16.801Z,100575.22
2022-12-21T23:19:46.828Z,100574.91
2022-12-21T23:22:34.240Z,100573.13
2022-12-21T23:25:21.668Z,100575.12
2022-12-21T23:27:57.865Z,100573.05
2022-12-21T23:30:48.363Z,100563.93
2022-12-21T23:33:38.564Z,100565.81
2022-12-21T23:36:50.460Z,100551.55
2022-12-21T23:39:40.817Z,100546.75
2022-12-21T23:42:34.795Z,100543.69
2022-12-21T23:45:05.264Z,100546.95
2022-12-21T23:47:52.528Z,100538.05
2022-12-21T23:50:40.257Z,100537.20
2022-12-21T23:53:39.562Z,100537.83
2022-12-21T23:56:29.656Z,100541.91
2022-12-21T23:59:18.243Z,100533.98
